createdAt,value
2023-01-02T00:01:48.938Z,78.07
2023-01-02T00:04:16.624Z,85.22
2023-01-02T00:06:44.277Z,79.63
2023-01-02T00:09:12.183Z,84.03
2023-01-02T00:11:39.841Z,76.77
2023-01-02T00:14:07.521Z,78.72
2023-01-02T00:16:35.167Z,79.20
2023-01-02T00:19:02.863Z,83.75
2023-01-02T00:21:30.514Z,85.00
2023-01-02T00:23:58.166Z,85.05
2023-01-02T00:26:25.893Z,78.53
2023-01-02T00:28:54.306Z,87.18
2023-01-02T00:31:22.038Z,84.30
2023-01-02T00:33:49.680Z,83.43
2023-01-02T00:36:17.356Z,89.72
2023-01-02T00:38:45.000Z,80.03
2023-01-02T00:41:12.661Z,82.80
2023-01-02T00:43:40.271Z,80.82
2023-01-02T00:46:11.909Z,78.22
2023-01-02T00:48:40.345Z,77.03
2023-01-02T00:51:08.529Z,80.80
2023-01-02T00:53:36.344Z,80.40
2023-01-02T00:56:04.030Z,80.70
2023-01-02T00:58:31.673Z,72.55
2023-01-02T01:00:59.357Z,72.65
2023-01-02T01:03:27.055Z,78.40
2023-01-02T01:05:54.666Z,78.25
2023-01-02T01:08:22.250Z,79.57
2023-01-02T01:10:49.819Z,78.82
2023-01-02T01:13:17.457Z,78.57
2023-01-02T01:15:45.159Z,77.40
2023-01-02T01:18:12.864Z,75.10
2023-01-02T01:20:40.540Z,73.07
2023-01-02T01:23:08.216Z,79.07
2023-01-02T01:25:37.508Z,82.32
2023-01-02T01:28:05.286Z,81.07
2023-01-02T01:30:32.970Z,72.90
2023-01-02T01:33:00.608Z,78.32
2023-01-02T01:35:28.305Z,75.95
2023-01-02T01:37:55.920Z,79.65
2023-01-02T01:40:23.569Z,81.40
2023-01-02T01:42:53.905Z,79.15
2023-01-02T01:45:23.815Z,83.57
2023-01-02T01:47:54.597Z,87.22
2023-01-02T01:50:24.950Z,84.10
2023-01-02T01:52:55.310Z,84.07
2023-01-02T01:55:24.854Z,82.97
2023-01-02T01:57:57.383Z,88.85
2023-01-02T02:00:25.004Z,87.75
2023-01-02T02:02:56.245Z,91.82
2023-01-02T02:05:26.658Z,92.10
2023-01-02T02:08:04.689Z,98.35
2023-01-02T02:10:32.352Z,85.77
2023-01-02T02:13:00.020Z,98.93
2023-01-02T02:15:30.126Z,96.85
2023-01-02T02:18:00.484Z,101.10
2023-01-02T02:20:46.672Z,98.60
2023-01-02T02:23:17.161Z,103.47
2023-01-02T02:26:03.477Z,92.63
2023-01-02T02:28:58.885Z,99.07
2023-01-02T02:31:26.565Z,94.10
2023-01-02T02:34:00.359Z,100.32
2023-01-02T02:36:33.975Z,99.63
2023-01-02T02:39:10.761Z,96.80
2023-01-02T02:41:47.988Z,99.63
2023-01-02T02:44:25.202Z,107.47
2023-01-02T02:47:08.170Z,94.97
2023-01-02T02:49:44.906Z,102.50
2023-01-02T02:52:21.614Z,98.07
2023-01-02T02:55:10.254Z,96.05
2023-01-02T02:57:39.034Z,94.63
2023-01-02T03:00:07.827Z,87.68
2023-01-02T03:02:36.949Z,94.13
2023-01-02T03:05:06.483Z,92.30
2023-01-02T03:07:36.880Z,98.13
2023-01-02T03:10:17.828Z,99.55
2023-01-02T03:13:17.863Z,91.22
2023-01-02T03:15:54.371Z,97.13
2023-01-02T03:18:40.865Z,96.18
2023-01-02T03:21:13.527Z,93.90
2023-01-02T03:23:44.994Z,99.55
2023-01-02T03:26:13.910Z,100.00
2023-01-02T03:28:43.760Z,99.18
2023-01-02T03:31:14.329Z,93.97
2023-01-02T03:33:44.214Z,97.07
2023-01-02T03:36:15.454Z,97.75
2023-01-02T03:38:46.523Z,101.15
2023-01-02T03:41:35.887Z,103.13
2023-01-02T03:44:04.536Z,99.28
2023-01-02T03:46:34.131Z,108.90
2023-01-02T03:49:04.731Z,103.10
2023-01-02T03:51:32.752Z,103.22
2023-01-02T03:54:00.933Z,105.13
2023-01-02T03:56:28.561Z,99.63
2023-01-02T03:59:09.202Z,100.57
2023-01-02T04:01:36.996Z,102.97
2023-01-02T04:04:09.158Z,98.13
2023-01-02T04:06:38.750Z,110.28
2023-01-02T04:09:19.200Z,100.85
2023-01-02T04:11:49.741Z,104.83
2023-01-02T04:14:19.697Z,109.97
2023-01-02T04:16:48.892Z,99.38
2023-01-02T04:19:20.975Z,105.97
2023-01-02T04:21:50.071Z,100.68
2023-01-02T04:24:25.039Z,102.60
2023-01-02T04:26:57.486Z,101.85
2023-01-02T04:29:25.609Z,95.65
2023-01-02T04:32:04.001Z,91.05
2023-01-02T04:34:34.268Z,92.15
2023-01-02T04:37:01.954Z,94.80
2023-01-02T04:39:29.628Z,88.45
2023-01-02T04:41:57.388Z,92.93
2023-01-02T04:44:25.098Z,93.13
2023-01-02T04:46:52.767Z,95.07
2023-01-02T04:49:20.500Z,88.85
2023-01-02T04:51:48.094Z,91.65
2023-01-02T04:54:15.761Z,80.90
2023-01-02T04:56:43.409Z,88.35
2023-01-02T04:59:11.028Z,87.45
2023-01-02T05:01:38.844Z,89.47
2023-01-02T05:04:06.569Z,83.53
2023-01-02T05:06:34.240Z,79.97
2023-01-02T05:09:02.120Z,87.80
2023-01-02T05:11:29.707Z,90.50
2023-01-02T05:14:00.102Z,93.22
2023-01-02T05:16:31.550Z,84.63
2023-01-02T05:18:59.151Z,91.40
2023-01-02T05:21:45.483Z,97.45
2023-01-02T05:24:14.493Z,85.50
2023-01-02T05:26:42.152Z,102.55
2023-01-02T05:29:10.102Z,91.57
2023-01-02T05:31:37.850Z,95.38
2023-01-02T05:34:05.538Z,91.18
2023-01-02T05:36:33.150Z,100.10
2023-01-02T05:39:01.594Z,104.43
2023-01-02T05:41:29.265Z,92.45
2023-01-02T05:43:56.896Z,107.53
2023-01-02T05:46:24.626Z,111.37
2023-01-02T05:48:52.288Z,104.47
2023-01-02T05:51:20.628Z,104.70
2023-01-02T05:53:48.333Z,111.47
2023-01-02T05:56:17.323Z,105.97
2023-01-02T05:58:46.706Z,101.10
2023-01-02T06:01:15.596Z,103.28
2023-01-02T06:03:46.547Z,102.20
2023-01-02T06:06:14.954Z,105.55
2023-01-02T06:08:42.829Z,101.95
2023-01-02T06:11:10.767Z,104.35
2023-01-02T06:13:39.186Z,104.82
2023-01-02T06:16:07.902Z,109.72
2023-01-02T06:18:36.422Z,105.70
2023-01-02T06:21:14.180Z,108.95
2023-01-02T06:23:42.146Z,107.47
2023-01-02T06:26:11.458Z,106.63
2023-01-02T06:28:39.503Z,100.40
2023-01-02T06:31:08.847Z,109.72
2023-01-02T06:33:36.893Z,97.30
2023-01-02T06:36:09.090Z,101.88
2023-01-02T06:38:36.862Z,103.78
2023-01-02T06:41:05.028Z,112.35
2023-01-02T06:43:33.301Z,105.57
2023-01-02T06:46:01.929Z,102.78
2023-01-02T06:48:29.678Z,98.93
2023-01-02T06:50:58.157Z,100.18
2023-01-02T06:53:28.847Z,96.47
2023-01-02T06:55:57.669Z,100.10
2023-01-02T06:58:25.833Z,97.50
2023-01-02T07:00:53.688Z,106.45
2023-01-02T07:03:21.359Z,98.00
2023-01-02T07:05:49.051Z,103.55
2023-01-02T07:08:16.681Z,99.63
2023-01-02T07:10:47.979Z,102.43
2023-01-02T07:13:20.242Z,104.40
2023-01-02T07:15:47.919Z,109.50
2023-01-02T07:18:15.571Z,94.72
2023-01-02T07:20:43.235Z,107.72
2023-01-02T07:23:10.959Z,99.40
2023-01-02T07:25:44.194Z,107.13
2023-01-02T07:28:12.175Z,101.87
2023-01-02T07:30:39.788Z,98.05
2023-01-02T07:33:07.428Z,102.95
2023-01-02T07:35:35.100Z,104.20
2023-01-02T07:38:02.700Z,104.33
2023-01-02T07:40:32.314Z,105.25
2023-01-02T07:43:00.265Z,104.63
2023-01-02T07:45:28.045Z,103.80
2023-01-02T07:47:55.826Z,96.28
2023-01-02T07:50:23.449Z,105.85
2023-01-02T07:52:51.111Z,106.10
2023-01-02T07:55:18.806Z,105.82
2023-01-02T07:57:49.302Z,112.82
2023-01-02T08:00:18.430Z,104.93
2023-01-02T08:02:46.670Z,107.32
2023-01-02T08:05:14.344Z,99.78
2023-01-02T08:07:45.096Z,107.60
2023-01-02T08:10:13.207Z,107.47
2023-01-02T08:12:41.245Z,101.70
2023-01-02T08:15:09.219Z,96.50
2023-01-02T08:17:36.894Z,100.80
2023-01-02T08:20:08.129Z,100.50
2023-01-02T08:22:36.135Z,105.95
2023-01-02T08:25:03.988Z,107.90
2023-01-02T08:27:31.618Z,104.55
2023-01-02T08:29:59.357Z,107.80
2023-01-02T08:32:27.142Z,100.70
2023-01-02T08:34:54.856Z,104.18
2023-01-02T08:37:22.599Z,106.88
2023-01-02T08:39:50.255Z,103.60
2023-01-02T08:42:17.949Z,106.50
2023-01-02T08:44:45.702Z,111.63
2023-01-02T08:47:13.410Z,104.57
2023-01-02T08:49:41.088Z,108.18
2023-01-02T08:52:08.837Z,113.43
2023-01-02T08:54:36.516Z,106.73
2023-01-02T08:57:04.192Z,107.22
2023-01-02T08:59:31.913Z,113.75
2023-01-02T09:01:59.703Z,104.13
2023-01-02T09:04:27.406Z,107.68
2023-01-02T09:06:55.129Z,112.18
2023-01-02T09:09:22.807Z,112.03
2023-01-02T09:11:51.514Z,110.47
2023-01-02T09:14:20.227Z,105.07
2023-01-02T09:16:47.991Z,96.77
2023-01-02T09:19:15.634Z,97.70
2023-01-02T09:21:43.340Z,100.00
2023-01-02T09:24:11.065Z,104.60
2023-01-02T09:26:41.757Z,102.00
2023-01-02T09:29:10.340Z,103.20
2023-01-02T09:31:38.450Z,98.38
2023-01-02T09:34:06.275Z,98.63
2023-01-02T09:36:33.971Z,108.55
2023-01-02T09:39:02.584Z,124.30
2023-01-02T09:41:30.282Z,113.93
2023-01-02T09:44:00.806Z,118.18
2023-01-02T09:46:28.608Z,101.57
2023-01-02T09:48:56.289Z,112.40
2023-01-02T09:51:24.014Z,112.20
2023-01-02T09:53:51.897Z,107.90
2023-01-02T09:56:23.447Z,105.32
2023-01-02T09:58:58.394Z,114.47
2023-01-02T10:01:27.006Z,103.57
2023-01-02T10:03:54.733Z,105.53
2023-01-02T10:06:23.409Z,102.30
2023-01-02T10:08:51.052Z,104.80
2023-01-02T10:11:27.668Z,113.72
2023-01-02T10:16:48.013Z,91.90
2023-01-02T10:19:28.881Z,104.03
2023-01-02T10:22:00.168Z,102.95
2023-01-02T10:24:37.088Z,99.32
2023-01-02T10:27:05.131Z,95.78
2023-01-02T10:29:35.961Z,93.63
2023-01-02T10:32:06.395Z,99.50
2023-01-02T10:34:43.243Z,99.33
2023-01-02T10:37:14.749Z,93.20
2023-01-02T10:39:45.160Z,87.88
2023-01-02T10:42:14.449Z,95.88
2023-01-02T10:44:43.664Z,95.55
2023-01-02T10:47:19.548Z,105.00
2023-01-02T10:49:47.708Z,94.55
2023-01-02T10:52:24.262Z,100.47
2023-01-02T10:54:59.414Z,104.03
2023-01-02T10:57:45.013Z,97.43
2023-01-02T11:00:24.021Z,90.00
2023-01-02T11:02:57.009Z,94.55
2023-01-02T11:05:31.833Z,92.07
2023-01-02T11:07:59.932Z,94.25
2023-01-02T11:10:31.959Z,95.88
2023-01-02T11:13:09.413Z,100.72
2023-01-02T11:15:44.130Z,95.25
2023-01-02T11:18:12.628Z,98.03
2023-01-02T11:20:40.687Z,103.40
2023-01-02T11:23:14.503Z,91.57
2023-01-02T11:25:43.353Z,94.17
2023-01-02T11:28:17.688Z,92.68
2023-01-02T11:30:50.004Z,103.07
2023-01-02T11:33:27.049Z,93.95
2023-01-02T11:35:57.801Z,100.63
2023-01-02T11:38:29.540Z,92.03
2023-01-02T11:41:02.800Z,98.05
2023-01-02T11:44:01.989Z,101.60
2023-01-02T11:46:32.798Z,100.57
2023-01-02T11:49:08.455Z,99.85
2023-01-02T11:51:37.813Z,104.38
2023-01-02T11:54:07.423Z,109.43
2023-01-02T11:56:36.422Z,101.17
2023-01-02T11:59:14.403Z,102.10
2023-01-02T12:01:56.957Z,93.38
2023-01-02T12:04:24.817Z,97.93
2023-01-02T12:07:11.020Z,92.32
2023-01-02T12:09:44.883Z,84.13
2023-01-02T12:12:24.800Z,84.80
2023-01-02T12:14:54.751Z,87.07
2023-01-02T12:17:40.315Z,82.32
2023-01-02T12:20:17.171Z,87.45
2023-01-02T12:22:54.043Z,86.93
2023-01-02T12:25:24.581Z,88.10
2023-01-02T12:27:59.651Z,83.72
2023-01-02T12:30:27.558Z,92.28
2023-01-02T12:33:01.372Z,81.03
2023-01-02T12:35:29.022Z,86.17
2023-01-02T12:38:01.473Z,88.53
2023-01-02T12:40:47.425Z,83.20
2023-01-02T12:43:35.559Z,86.22
2023-01-02T12:46:18.306Z,78.72
2023-01-02T12:49:11.340Z,84.30
2023-01-02T12:51:38.962Z,84.20
2023-01-02T12:54:19.105Z,80.05
2023-01-02T12:56:54.956Z,81.68
2023-01-02T12:59:28.517Z,79.78
2023-01-02T13:02:03.592Z,79.53
2023-01-02T13:04:34.072Z,81.53
2023-01-02T13:07:10.003Z,83.30
2023-01-02T13:09:40.073Z,78.43
2023-01-02T13:12:11.354Z,75.43
2023-01-02T13:14:40.906Z,82.53
2023-01-02T13:17:08.582Z,79.20
2023-01-02T13:19:44.411Z,79.95
2023-01-02T13:22:26.832Z,85.87
2023-01-02T13:24:56.097Z,80.53
2023-01-02T13:27:24.005Z,81.75
2023-01-02T13:29:53.536Z,76.57
2023-01-02T13:32:28.875Z,80.93
2023-01-02T13:34:57.112Z,85.15
2023-01-02T13:37:26.624Z,80.90
2023-01-02T13:39:55.534Z,83.22
2023-01-02T13:42:55.087Z,75.63
2023-01-02T13:45:31.126Z,74.23
2023-01-02T13:48:03.393Z,77.70
2023-01-02T13:50:35.231Z,76.32
2023-01-02T13:53:11.886Z,81.37
2023-01-02T13:55:42.352Z,77.97
2023-01-02T13:58:14.871Z,76.70
2023-01-02T14:00:51.577Z,70.97
2023-01-02T14:03:25.076Z,81.72
2023-01-02T14:06:00.709Z,79.10
2023-01-02T14:08:28.479Z,77.00
2023-01-02T14:11:16.356Z,81.22
2023-01-02T14:13:45.599Z,78.07
2023-01-02T14:16:13.291Z,69.22
2023-01-02T14:18:46.085Z,76.38
2023-01-02T14:21:21.421Z,73.00
2023-01-02T14:24:17.039Z,74.13
2023-01-02T14:26:39.002Z,81.57
2023-01-02T14:29:11.403Z,68.55
2023-01-02T14:31:39.570Z,76.60
2023-01-02T14:34:07.323Z,79.07
2023-01-02T14:36:37.010Z,75.35
2023-01-02T14:39:04.797Z,72.53
2023-01-02T14:42:00.133Z,73.22
2023-01-02T14:44:27.782Z,74.83
2023-01-02T14:46:56.403Z,76.30
2023-01-02T14:49:27.089Z,73.43
2023-01-02T14:51:54.985Z,74.15
2023-01-02T14:54:34.285Z,73.28
2023-01-02T14:57:10.434Z,79.10
2023-01-02T14:59:41.553Z,72.27
2023-01-02T15:02:13.811Z,75.78
2023-01-02T15:04:46.965Z,69.72
2023-01-02T15:07:44.161Z,78.63
2023-01-02T15:10:16.765Z,80.85
2023-01-02T15:13:06.657Z,72.28
2023-01-02T15:15:46.522Z,68.45
2023-01-02T15:18:31.032Z,71.68
2023-01-02T15:21:07.859Z,78.65
2023-01-02T15:23:36.798Z,80.45
2023-01-02T15:26:31.582Z,74.93
2023-01-02T15:29:03.623Z,74.43
2023-01-02T15:31:31.784Z,75.93
2023-01-02T15:34:01.194Z,72.67
2023-01-02T15:36:37.450Z,72.63
2023-01-02T15:39:16.499Z,72.00
2023-01-02T15:41:49.313Z,68.43
2023-01-02T15:44:40.255Z,73.20
2023-01-02T15:47:11.378Z,67.60
2023-01-02T15:49:40.759Z,66.90
2023-01-02T15:52:25.941Z,65.72
2023-01-02T15:54:54.062Z,71.65
2023-01-02T15:57:25.841Z,65.93
2023-01-02T15:59:53.543Z,63.57
2023-01-02T16:02:33.536Z,67.72
2023-01-02T16:05:28.263Z,70.45
2023-01-02T16:07:57.386Z,65.80
2023-01-02T16:10:25.958Z,64.22
2023-01-02T16:13:03.724Z,66.23
2023-01-02T16:15:33.086Z,62.50
2023-01-02T16:18:01.615Z,69.05
2023-01-02T16:20:29.890Z,61.85
2023-01-02T16:22:58.829Z,64.25
2023-01-02T16:25:28.498Z,64.03
2023-01-02T16:28:35.915Z,60.22
2023-01-02T16:31:07.754Z,63.38
2023-01-02T16:33:35.430Z,61.70
2023-01-02T16:36:05.982Z,64.13
2023-01-02T16:38:46.015Z,65.80
2023-01-02T16:41:35.299Z,62.55
2023-01-02T16:44:14.497Z,61.55
2023-01-02T16:46:43.151Z,60.65
2023-01-02T16:49:15.212Z,59.53
2023-01-02T16:51:45.200Z,65.93
2023-01-02T16:54:16.302Z,61.78
2023-01-02T16:56:43.966Z,63.72
2023-01-02T16:59:11.766Z,63.83
2023-01-02T17:01:39.467Z,63.60
2023-01-02T17:04:07.162Z,69.72
2023-01-02T17:06:36.114Z,67.70
2023-01-02T17:09:03.898Z,63.80
2023-01-02T17:11:31.556Z,64.63
2023-01-02T17:14:01.097Z,61.38
2023-01-02T17:16:28.728Z,61.10
2023-01-02T17:18:56.521Z,61.22
2023-01-02T17:21:27.730Z,66.60
2023-01-02T17:24:00.059Z,60.88
2023-01-02T17:26:27.684Z,68.15
2023-01-02T17:28:55.349Z,64.15
2023-01-02T17:31:25.989Z,71.00
2023-01-02T17:33:53.821Z,67.27
2023-01-02T17:36:21.481Z,74.95
2023-01-02T17:38:49.057Z,72.47
2023-01-02T17:41:16.669Z,63.83
2023-01-02T17:44:01.763Z,70.93
2023-01-02T17:49:21.001Z,66.15
2023-01-02T17:51:48.697Z,67.40
2023-01-02T17:54:16.410Z,68.90
2023-01-02T17:56:44.029Z,64.07
2023-01-02T17:59:12.910Z,70.83
2023-01-02T18:01:40.841Z,67.57
2023-01-02T18:04:08.566Z,75.25
2023-01-02T18:06:36.254Z,68.65
2023-01-02T18:09:04.125Z,74.05
2023-01-02T18:11:31.790Z,74.75
2023-01-02T18:13:59.588Z,73.65
2023-01-02T18:16:33.369Z,64.30
2023-01-02T18:19:01.425Z,71.10
2023-01-02T18:21:30.689Z,70.10
2023-01-02T18:23:59.626Z,66.47
2023-01-02T18:26:27.397Z,72.95
2023-01-02T18:28:57.426Z,72.28
2023-01-02T18:31:25.870Z,71.47
2023-01-02T18:33:58.213Z,68.57
2023-01-02T18:36:26.485Z,76.43
2023-01-02T18:39:10.982Z,74.07
2023-01-02T18:41:39.922Z,73.68
2023-01-02T18:44:27.120Z,71.47
2023-01-02T18:47:06.547Z,67.85
2023-01-02T18:49:44.254Z,70.07
2023-01-02T18:52:11.870Z,78.17
2023-01-02T18:54:44.035Z,67.20
2023-01-02T18:57:16.030Z,67.38
2023-01-02T18:59:44.779Z,72.70
2023-01-02T19:02:31.119Z,72.70
2023-01-02T19:04:59.448Z,75.97
2023-01-02T19:07:28.971Z,68.77
2023-01-02T19:10:16.879Z,69.72
2023-01-02T19:13:07.729Z,73.95
2023-01-02T19:15:36.083Z,65.75
2023-01-02T19:18:18.619Z,71.95
2023-01-02T19:20:48.308Z,75.13
2023-01-02T19:23:15.904Z,70.85
2023-01-02T19:25:44.505Z,69.32
2023-01-02T19:28:25.539Z,71.30
2023-01-02T19:30:53.397Z,68.25
2023-01-02T19:33:34.017Z,74.85
2023-01-02T19:36:02.163Z,74.72
2023-01-02T19:38:30.757Z,70.27
2023-01-02T19:40:58.956Z,73.97
2023-01-02T19:43:27.163Z,74.13
2023-01-02T19:45:55.130Z,75.15
2023-01-02T19:48:22.788Z,73.50
2023-01-02T19:50:50.721Z,73.53
2023-01-02T19:53:18.443Z,69.57
2023-01-02T19:55:46.092Z,77.38
2023-01-02T19:58:13.749Z,71.25
2023-01-02T20:00:41.375Z,72.57
2023-01-02T20:03:09.305Z,72.95
2023-01-02T20:05:37.010Z,65.07
2023-01-02T20:08:05.112Z,77.55
2023-01-02T20:10:32.677Z,73.37
2023-01-02T20:13:00.331Z,69.45
2023-01-02T20:15:28.518Z,73.82
2023-01-02T20:17:56.519Z,73.15
2023-01-02T20:20:26.994Z,78.78
2023-01-02T20:22:55.094Z,70.90
2023-01-02T20:25:25.330Z,78.03
2023-01-02T20:27:54.032Z,81.95
2023-01-02T20:30:24.645Z,72.70
2023-01-02T20:32:53.144Z,72.93
2023-01-02T20:35:20.793Z,72.20
2023-01-02T20:37:48.574Z,73.43
2023-01-02T20:40:16.228Z,82.63
2023-01-02T20:42:44.012Z,79.38
2023-01-02T20:45:12.282Z,77.22
2023-01-02T20:47:39.929Z,79.40
2023-01-02T20:50:07.742Z,76.57
2023-01-02T20:52:35.367Z,75.07
2023-01-02T20:55:03.033Z,70.95
2023-01-02T20:57:30.776Z,78.05
2023-01-02T20:59:58.464Z,72.77
2023-01-02T21:02:26.306Z,73.05
2023-01-02T21:04:54.081Z,73.82
2023-01-02T21:07:22.256Z,73.05
2023-01-02T21:09:50.041Z,71.30
2023-01-02T21:12:36.410Z,78.43
2023-01-02T21:15:04.203Z,74.32
2023-01-02T21:17:31.839Z,73.55
2023-01-02T21:19:59.517Z,73.28
2023-01-02T21:22:27.196Z,75.28
2023-01-02T21:24:55.276Z,72.88
2023-01-02T21:27:22.953Z,76.00
2023-01-02T21:29:50.633Z,81.28
2023-01-02T21:32:18.261Z,73.05
2023-01-02T21:34:45.902Z,73.80
2023-01-02T21:37:13.561Z,78.68
2023-01-02T21:39:41.257Z,72.38
2023-01-02T21:42:15.764Z,78.25
2023-01-02T21:44:43.718Z,78.83
2023-01-02T21:47:11.464Z,77.70
2023-01-02T21:49:39.446Z,77.50
2023-01-02T21:52:07.082Z,71.68
2023-01-02T21:54:34.673Z,72.63
2023-01-02T21:57:02.345Z,75.85
2023-01-02T21:59:30.029Z,74.38
2023-01-02T22:02:00.089Z,80.70
2023-01-02T22:04:27.937Z,80.22
2023-01-02T22:09:43.460Z,75.10
2023-01-02T22:12:11.100Z,73.93
2023-01-02T22:14:39.591Z,73.40
2023-01-02T22:17:10.944Z,70.90
2023-01-02T22:19:38.878Z,79.13
2023-01-02T22:22:06.863Z,77.80
2023-01-02T22:24:39.125Z,76.40
2023-01-02T22:27:12.825Z,75.80
2023-01-02T22:30:18.606Z,78.07
2023-01-02T22:32:31.971Z,69.03
2023-01-02T22:34:59.989Z,71.35
2023-01-02T22:37:27.673Z,73.97
2023-01-02T22:39:55.352Z,78.30
2023-01-02T22:43:01.580Z,86.18
2023-01-02T22:45:31.728Z,81.28
2023-01-02T22:48:00.149Z,76.30
2023-01-02T22:50:31.716Z,74.00
2023-01-02T22:52:59.647Z,72.50
2023-01-02T22:55:28.163Z,75.72
2023-01-02T22:57:55.811Z,79.13
2023-01-02T23:00:23.658Z,91.57
2023-01-02T23:02:51.364Z,73.30
2023-01-02T23:05:20.863Z,82.38
2023-01-02T23:07:51.539Z,81.88
2023-01-02T23:10:19.964Z,78.03
2023-01-02T23:12:47.687Z,79.40
2023-01-02T23:15:15.369Z,82.85
2023-01-02T23:18:01.671Z,82.50
2023-01-02T23:20:29.299Z,84.43
2023-01-02T23:22:56.957Z,86.20
2023-01-02T23:25:24.545Z,80.82
2023-01-02T23:27:52.506Z,83.53
2023-01-02T23:30:20.181Z,88.93
2023-01-02T23:32:47.809Z,81.93
2023-01-02T23:35:15.571Z,86.57
2023-01-02T23:37:43.200Z,89.85
2023-01-02T23:40:11.188Z,86.78
2023-01-02T23:42:38.822Z,85.57
2023-01-02T23:45:07.004Z,85.03
2023-01-02T23:47:34.689Z,79.60
2023-01-02T23:50:02.319Z,93.65
2023-01-02T23:52:29.893Z,93.00
2023-01-02T23:54:57.556Z,83.80
2023-01-02T23:57:25.236Z,89.90
2023-01-02T23:59:52.860Z,84.53
